Time;durP1;ratioP1;P1;durP2;ratioP2;P2;SDS_P1;SDS_P2;PMS_P1;PMS_P2;Temp;Humidity;BMP_temperature;BMP_pressure;BME280_temperature;BME280_humidity;BME280_pressure;Samples;Min_cycle;Max_cycle;Signal;HPM_P1;HPM_P2
2022/08/21 00:01:20;;;;;;;6.10;3.47;;;;;;;19.21;100.00;101062.31;5074406;28;20485;-69
2022/08/21 00:03:46;;;;;;;8.37;4.03;;;;;;;19.19;100.00;101069.34;5074447;28;20445;-70
2022/08/21 00:06:13;;;;;;;7.43;3.57;;;;;;;19.17;100.00;101072.44;5074210;28;20969;-69
2022/08/21 00:08:40;;;;;;;7.80;3.90;;;;;;;19.16;100.00;101070.81;5074354;28;20442;-69
2022/08/21 00:11:07;;;;;;;7.63;4.27;;;;;;;19.15;100.00;101072.75;5074308;28;20457;-68
2022/08/21 00:13:35;;;;;;;7.00;4.20;;;;;;;19.16;100.00;101074.34;5074158;28;20449;-69
2022/08/21 00:16:03;;;;;;;8.80;4.00;;;;;;;19.11;100.00;101074.59;5074158;28;20437;-69
2022/08/21 00:18:29;;;;;;;6.80;4.20;;;;;;;19.10;100.00;101083.19;5073917;28;20931;-68
2022/08/21 00:20:56;;;;;;;18.10;4.50;;;;;;;19.07;100.00;101078.38;5073537;28;20889;-70
2022/08/21 00:23:23;;;;;;;9.20;4.57;;;;;;;19.09;100.00;101081.59;5074072;28;20440;-68
2022/08/21 00:25:49;;;;;;;6.90;3.87;;;;;;;19.06;100.00;101074.84;5073917;28;20446;-68
2022/08/21 00:28:16;;;;;;;8.90;4.20;;;;;;;19.05;100.00;101075.19;5073914;28;20519;-68
2022/08/21 00:30:45;;;;;;;5.23;2.80;;;;;;;19.02;100.00;101073.13;5073872;28;20468;-69
2022/08/21 00:33:12;;;;;;;6.90;3.50;;;;;;;18.96;100.00;101078.06;5073839;28;20502;-69
2022/08/21 00:35:41;;;;;;;7.70;4.13;;;;;;;19.00;100.00;101072.69;5073447;28;20441;-69
2022/08/21 00:38:08;;;;;;;7.07;3.83;;;;;;;18.94;100.00;101074.06;5073768;28;20445;-69
2022/08/21 00:40:41;;;;;;;7.83;4.10;;;;;;;18.89;100.00;101073.16;5073637;28;20535;-69
2022/08/21 00:43:11;;;;;;;6.20;3.90;;;;;;;18.91;100.00;101072.81;5073840;28;20434;-69
2022/08/21 00:45:37;;;;;;;7.03;4.73;;;;;;;18.86;100.00;101076.59;5073616;28;20449;-68
2022/08/21 00:48:06;;;;;;;7.20;3.83;;;;;;;18.76;100.00;101074.31;5073328;28;20437;-68
2022/08/21 00:50:36;;;;;;;7.17;3.73;;;;;;;18.74;100.00;101073.88;5073299;28;20464;-68
2022/08/21 00:53:06;;;;;;;8.90;4.03;;;;;;;18.64;100.00;101068.81;5073318;28;20928;-69
2022/08/21 00:55:33;;;;;;;7.37;4.00;;;;;;;18.69;100.00;101076.03;5073665;28;20449;-69
2022/08/21 00:58:01;;;;;;;8.23;3.63;;;;;;;18.66;100.00;101074.75;5073594;28;20433;-68
2022/08/21 01:00:33;;;;;;;7.03;3.80;;;;;;;18.62;100.00;101065.59;5073410;28;20485;-69
2022/08/21 01:03:01;;;;;;;9.33;4.30;;;;;;;18.67;100.00;101060.69;5073455;28;20428;-69
2022/08/21 01:05:29;;;;;;;7.13;3.53;;;;;;;18.65;100.00;101064.94;5073501;28;20437;-69
2022/08/21 01:07:56;;;;;;;10.13;4.90;;;;;;;18.64;100.00;101063.34;5073404;28;20453;-69
2022/08/21 01:10:23;;;;;;;11.23;4.30;;;;;;;18.64;100.00;101057.84;5073029;28;20437;-69
2022/08/21 01:12:51;;;;;;;8.77;4.83;;;;;;;18.66;100.00;101052.81;5073210;28;20444;-69
2022/08/21 01:15:19;;;;;;;7.83;3.80;;;;;;;18.63;100.00;101056.22;5072934;28;20821;-69
2022/08/21 01:17:46;;;;;;;9.30;4.20;;;;;;;18.60;100.00;101057.72;5073036;28;20445;-70
2022/08/21 01:20:13;;;;;;;7.50;4.60;;;;;;;18.60;100.00;101065.97;5073072;28;20481;-70
2022/08/21 01:22:41;;;;;;;7.43;3.80;;;;;;;18.59;100.00;101060.78;5073187;28;20457;-70
2022/08/21 01:25:10;;;;;;;8.30;3.97;;;;;;;18.59;100.00;101067.09;5073244;28;20532;-70
2022/08/21 01:27:37;;;;;;;8.33;4.50;;;;;;;18.59;100.00;101060.78;5073188;28;20445;-70
2022/08/21 01:30:10;;;;;;;7.30;3.93;;;;;;;18.62;100.00;101062.88;5073191;28;20445;-70
2022/08/21 01:32:36;;;;;;;8.43;4.10;;;;;;;18.57;100.00;101063.09;5073241;28;20830;-70
2022/08/21 01:35:06;;;;;;;5.80;3.10;;;;;;;18.57;100.00;101061.16;5073293;28;20437;-70
2022/08/21 01:37:32;;;;;;;6.70;3.47;;;;;;;18.57;100.00;101058.41;5073248;28;20445;-70
2022/08/21 01:40:00;;;;;;;8.23;4.67;;;;;;;18.58;100.00;101060.00;5073049;28;20481;-70
2022/08/21 01:42:27;;;;;;;9.13;4.53;;;;;;;18.53;100.00;101067.66;5073102;28;20472;-70
2022/08/21 01:44:53;;;;;;;7.03;3.20;;;;;;;18.51;100.00;101065.28;5073218;28;20433;-70
2022/08/21 01:47:20;;;;;;;8.30;4.87;;;;;;;18.51;100.00;101075.44;5073087;28;20456;-70
2022/08/21 01:49:46;;;;;;;6.10;3.90;;;;;;;18.46;100.00;101079.22;5073037;28;20442;-70
2022/08/21 01:52:13;;;;;;;8.27;3.90;;;;;;;18.50;100.00;101073.81;5072982;28;20457;-70
2022/08/21 01:54:40;;;;;;;8.20;4.10;;;;;;;18.46;100.00;101076.47;5072732;28;20817;-70
2022/08/21 01:57:08;;;;;;;8.13;4.30;;;;;;;18.48;100.00;101070.63;5072971;28;20441;-70
2022/08/21 01:59:36;;;;;;;7.53;3.80;;;;;;;18.48;100.00;101076.13;5073170;28;20445;-70
2022/08/21 02:02:04;;;;;;;7.90;4.63;;;;;;;18.45;100.00;101080.34;5076795;28;20586;-71
2022/08/21 02:04:31;;;;;;;5.83;3.53;;;;;;;18.44;100.00;101076.00;5076808;28;20445;-71
2022/08/21 02:06:57;;;;;;;9.10;4.23;;;;;;;18.40;100.00;101077.84;5076837;28;20440;-71
2022/08/21 02:09:24;;;;;;;7.57;4.00;;;;;;;18.35;100.00;101078.84;5076775;28;20437;-70
2022/08/21 02:11:51;;;;;;;7.40;4.30;;;;;;;18.35;100.00;101076.13;5076764;28;20472;-71
2022/08/21 02:14:19;;;;;;;13.50;4.00;;;;;;;18.33;100.00;101078.41;5076295;28;20445;-70
2022/08/21 02:16:46;;;;;;;6.57;3.53;;;;;;;18.27;100.00;101081.69;5076295;28;20444;-70
2022/08/21 02:19:16;;;;;;;8.17;4.00;;;;;;;18.25;100.00;101084.00;5076450;28;20433;-70
2022/08/21 02:21:43;;;;;;;6.27;3.23;;;;;;;18.17;100.00;101082.16;5075987;28;20492;-71
2022/08/21 02:24:10;;;;;;;8.07;4.50;;;;;;;18.07;100.00;101075.16;5076549;28;20437;-70
2022/08/21 02:26:37;;;;;;;6.37;3.43;;;;;;;18.05;100.00;101080.19;5076321;28;20437;-71
2022/08/21 02:29:04;;;;;;;8.53;3.87;;;;;;;18.04;100.00;101078.59;5076446;28;20456;-69
2022/08/21 02:31:32;;;;;;;8.90;5.13;;;;;;;18.03;100.00;101066.81;5075950;28;20543;-71
2022/08/21 02:33:59;;;;;;;8.10;3.70;;;;;;;17.98;100.00;101075.25;5075907;28;20445;-71
2022/08/21 02:36:26;;;;;;;4.60;2.63;;;;;;;17.99;100.00;101068.63;5076098;28;20459;-70
2022/08/21 02:38:52;;;;;;;6.00;3.00;;;;;;;17.97;100.00;101067.34;5075947;28;20956;-71
2022/08/21 02:41:21;;;;;;;5.83;2.90;;;;;;;17.92;100.00;101062.09;5075973;28;20485;-70
2022/08/21 02:43:48;;;;;;;5.70;3.40;;;;;;;17.84;100.00;101064.59;5075709;28;20491;-71
2022/08/21 02:46:18;;;;;;;7.10;3.37;;;;;;;17.84;100.00;101067.34;5076093;28;20444;-71
2022/08/21 02:48:47;;;;;;;5.27;2.70;;;;;;;17.80;100.00;101068.38;5076092;28;20788;-71
2022/08/21 02:51:17;;;;;;;8.30;3.20;;;;;;;17.80;100.00;101074.63;5076027;28;20492;-71
2022/08/21 02:53:44;;;;;;;6.53;3.30;;;;;;;17.74;100.00;101066.97;5076155;28;20454;-71
2022/08/21 02:56:13;;;;;;;6.40;3.30;;;;;;;17.64;100.00;101070.88;5075562;28;20448;-71
2022/08/21 02:58:42;;;;;;;7.00;4.00;;;;;;;17.67;100.00;101074.91;5075961;28;20446;-71
2022/08/21 03:01:09;;;;;;;12.10;3.90;;;;;;;17.71;100.00;101071.16;5075421;28;21018;-71
2022/08/21 03:03:36;;;;;;;7.60;3.63;;;;;;;17.62;100.00;101068.50;5075833;28;20472;-71
2022/08/21 03:06:04;;;;;;;7.50;3.73;;;;;;;17.60;100.00;101056.25;5075680;28;20438;-71
2022/08/21 03:08:31;;;;;;;7.80;3.57;;;;;;;17.52;100.00;101068.91;5075561;28;20452;-71
2022/08/21 03:11:00;;;;;;;7.60;3.40;;;;;;;17.53;100.00;101064.22;5075436;28;20465;-71
2022/08/21 03:13:27;;;;;;;6.53;3.60;;;;;;;17.53;100.00;101072.44;5075162;28;20445;-70
2022/08/21 03:15:55;;;;;;;6.53;3.80;;;;;;;17.50;100.00;101068.44;5075290;28;20440;-71
2022/08/21 03:18:21;;;;;;;6.80;4.20;;;;;;;17.48;100.00;101070.69;5075436;28;20449;-70
2022/08/21 03:20:49;;;;;;;7.80;4.70;;;;;;;17.50;100.00;101062.16;5075033;28;20493;-71
2022/08/21 03:23:18;;;;;;;6.53;3.50;;;;;;;17.49;100.00;101063.31;5075447;28;20862;-70
2022/08/21 03:25:46;;;;;;;6.73;3.80;;;;;;;17.48;100.00;101072.63;5075401;28;20852;-71
2022/08/21 03:28:16;;;;;;;10.13;4.10;;;;;;;17.47;100.00;101073.78;5075322;28;20444;-71
2022/08/21 03:30:44;;;;;;;6.50;3.10;;;;;;;17.49;100.00;101071.53;5075342;28;20465;-71
2022/08/21 03:33:11;;;;;;;8.33;3.57;;;;;;;17.50;100.00;101065.69;5075054;28;20442;-71
2022/08/21 03:35:37;;;;;;;9.07;3.97;;;;;;;17.46;100.00;101067.50;5074919;28;20448;-71
2022/08/21 03:38:04;;;;;;;6.40;3.33;;;;;;;17.48;100.00;101072.63;5075168;28;20449;-71
2022/08/21 03:40:32;;;;;;;7.20;3.10;;;;;;;17.44;100.00;101068.97;5074855;28;20542;-71
2022/08/21 03:42:59;;;;;;;8.23;3.23;;;;;;;17.39;100.00;101070.78;5075034;28;20457;-71
2022/08/21 03:45:25;;;;;;;6.33;3.33;;;;;;;17.33;100.00;101061.16;5074873;28;20449;-71
2022/08/21 03:47:55;;;;;;;5.47;3.20;;;;;;;17.29;100.00;101068.44;5074763;28;20442;-71
2022/08/21 03:50:23;;;;;;;5.60;2.43;;;;;;;17.29;100.00;101076.66;5074760;28;20448;-71
2022/08/21 03:52:50;;;;;;;5.90;3.47;;;;;;;17.32;100.00;101075.22;5074837;28;20492;-71
2022/08/21 03:55:16;;;;;;;7.23;3.40;;;;;;;17.30;100.00;101080.19;5074845;28;20433;-71
2022/08/21 03:57:44;;;;;;;6.07;3.37;;;;;;;17.25;100.00;101073.00;5074702;28;20441;-71
2022/08/21 04:00:13;;;;;;;6.60;3.53;;;;;;;17.18;100.00;101070.00;5074806;28;20445;-72
2022/08/21 04:02:39;;;;;;;10.17;3.50;;;;;;;17.24;100.00;101065.91;5074737;28;20564;-71
2022/08/21 04:05:08;;;;;;;6.97;3.40;;;;;;;17.26;100.00;101074.59;5074447;28;20452;-69
2022/08/21 04:07:35;;;;;;;7.23;3.60;;;;;;;17.09;100.00;101072.00;5074463;28;20819;-70
2022/08/21 04:10:01;;;;;;;6.07;3.83;;;;;;;17.04;100.00;101072.97;5074427;28;20540;-69
2022/08/21 04:12:28;;;;;;;7.17;3.57;;;;;;;17.01;100.00;101075.59;5074289;28;20480;-70
2022/08/21 04:14:55;;;;;;;8.03;3.60;;;;;;;16.97;100.00;101078.19;5074400;28;20433;-70
2022/08/21 04:17:22;;;;;;;6.50;3.60;;;;;;;16.96;100.00;101078.53;5073930;28;20970;-70
2022/08/21 04:19:48;;;;;;;10.97;3.20;;;;;;;16.90;100.00;101083.38;5074148;28;20813;-70
2022/08/21 04:22:16;;;;;;;6.03;2.73;;;;;;;16.89;100.00;101085.31;5080253;22;20499;-74
2022/08/21 04:24:42;;;;;;;7.53;3.40;;;;;;;17.02;100.00;101079.94;5032095;28;20555;-75
2022/08/21 04:27:09;;;;;;;6.97;3.90;;;;;;;17.06;100.00;101086.34;5033127;28;20985;-74
2022/08/21 04:29:35;;;;;;;6.87;3.37;;;;;;;16.99;100.00;101088.78;5032334;28;20450;-75
2022/08/21 04:32:04;;;;;;;6.80;3.53;;;;;;;16.92;100.00;101089.34;5032430;28;20840;-75
2022/08/21 04:34:30;;;;;;;6.43;3.40;;;;;;;16.99;100.00;101088.78;5032996;28;20447;-74
2022/08/21 04:36:57;;;;;;;5.20;2.83;;;;;;;16.95;100.00;101083.19;5034044;28;20451;-75
2022/08/21 04:39:23;;;;;;;7.50;3.30;;;;;;;16.89;100.00;101079.84;5034602;28;20450;-75
2022/08/21 04:41:50;;;;;;;6.80;3.50;;;;;;;16.90;100.00;101075.16;5034106;28;20498;-75
2022/08/21 04:44:16;;;;;;;11.80;3.87;;;;;;;16.90;100.00;101075.16;5031376;28;20892;-75
2022/08/21 04:46:43;;;;;;;5.70;2.77;;;;;;;16.91;100.00;101085.00;5031250;28;20439;-75
2022/08/21 04:49:10;;;;;;;6.37;3.47;;;;;;;16.89;100.00;101084.50;5032108;28;20435;-74
2022/08/21 04:51:38;;;;;;;7.67;3.10;;;;;;;16.98;100.00;101087.19;5030973;28;20482;-75
2022/08/21 04:54:09;;;;;;;6.20;3.30;;;;;;;16.97;100.00;101094.59;5032251;28;20451;-76
2022/08/21 04:56:40;;;;;;;7.40;3.27;;;;;;;16.98;100.00;101090.72;5031257;28;20443;-76
2022/08/21 04:59:14;;;;;;;14.23;2.97;;;;;;;17.04;100.00;101091.34;5031038;28;20805;-75
2022/08/21 05:01:41;;;;;;;6.97;3.50;;;;;;;17.07;100.00;101087.94;5030817;28;20490;-75
2022/08/21 05:04:13;;;;;;;10.20;3.03;;;;;;;17.03;100.00;101078.78;5032043;28;20451;-75
2022/08/21 05:06:43;;;;;;;6.20;3.17;;;;;;;17.07;100.00;101088.75;5030892;28;20424;-75
2022/08/21 05:09:13;;;;;;;7.33;3.57;;;;;;;17.05;100.00;101095.69;5030482;28;20451;-73
2022/08/21 05:11:40;;;;;;;5.40;2.83;;;;;;;17.10;100.00;101096.28;5030071;28;20464;-74
2022/08/21 05:14:07;;;;;;;5.33;2.93;;;;;;;17.08;100.00;101095.81;5030525;28;20451;-76
2022/08/21 05:16:33;;;;;;;7.83;3.60;;;;;;;17.10;100.00;101096.28;5031173;28;21052;-76
2022/08/21 05:19:00;;;;;;;4.90;2.90;;;;;;;17.06;100.00;101092.63;5037766;28;20451;-76
2022/08/21 05:21:28;;;;;;;7.87;3.93;;;;;;;17.05;100.00;101096.50;5031419;28;21008;-76
2022/08/21 05:23:54;;;;;;;6.70;3.80;;;;;;;16.99;100.00;101105.22;5033274;28;20463;-76
2022/08/21 05:26:20;;;;;;;6.37;2.90;;;;;;;17.02;100.00;101099.88;5025275;28;20487;-76
2022/08/21 05:28:47;;;;;;;10.60;3.33;;;;;;;17.01;100.00;101106.50;5020708;28;20448;-78
2022/08/21 05:31:13;;;;;;;10.13;3.60;;;;;;;17.00;100.00;101110.38;5020983;28;20479;-76
2022/08/21 05:33:40;;;;;;;6.10;3.13;;;;;;;16.94;100.00;101111.69;5010642;28;20474;-77
2022/08/21 05:36:07;;;;;;;5.30;2.90;;;;;;;16.96;100.00;101111.38;5033776;28;20447;-75
2022/08/21 05:38:35;;;;;;;6.70;3.90;;;;;;;16.92;100.00;101111.22;5033931;28;20450;-76
2022/08/21 05:41:01;;;;;;;9.63;4.10;;;;;;;16.96;100.00;101114.91;5033100;28;20836;-76
2022/08/21 05:43:28;;;;;;;10.70;3.80;;;;;;;16.95;100.00;101115.22;5036302;28;20463;-77
2022/08/21 05:45:54;;;;;;;6.50;3.40;;;;;;;16.93;100.00;101115.56;5020058;28;20456;-75
2022/08/21 05:48:24;;;;;;;6.13;3.10;;;;;;;16.94;100.00;101114.41;5017221;28;20505;-75
2022/08/21 05:50:52;;;;;;;5.10;2.73;;;;;;;17.01;100.00;101120.19;5014767;28;20825;-75
2022/08/21 05:53:20;;;;;;;5.57;2.73;;;;;;;17.03;100.00;101128.06;5017836;28;20485;-75
2022/08/21 05:55:49;;;;;;;6.10;2.60;;;;;;;17.13;100.00;101139.44;5032996;28;20612;-75
2022/08/21 05:58:17;;;;;;;5.90;2.70;;;;;;;17.18;100.00;101135.72;5034788;28;20439;-75
2022/08/21 06:00:44;;;;;;;3.77;1.90;;;;;;;17.18;100.00;101135.72;5020649;28;20464;-75
2022/08/21 06:03:12;;;;;;;5.30;2.60;;;;;;;17.22;100.00;101133.91;5045544;28;20517;-75
2022/08/21 06:05:39;;;;;;;5.47;2.80;;;;;;;17.25;100.00;101129.69;5029571;28;20962;-77
2022/08/21 06:08:05;;;;;;;4.20;2.00;;;;;;;17.26;100.00;101136.75;5026354;28;20474;-75
2022/08/21 06:10:32;;;;;;;5.20;2.20;;;;;;;17.26;100.00;101134.03;5034052;28;20972;-75
2022/08/21 06:13:00;;;;;;;6.07;2.97;;;;;;;17.26;100.00;101132.09;5039679;28;20483;-75
2022/08/21 06:15:26;;;;;;;3.90;1.60;;;;;;;17.34;100.00;101136.69;5032279;28;20459;-74
2022/08/21 06:17:53;;;;;;;7.90;2.40;;;;;;;17.35;100.00;101127.38;5029203;28;20961;-73
2022/08/21 06:20:20;;;;;;;9.50;2.10;;;;;;;17.39;100.00;101135.69;5020157;28;20452;-75
2022/08/21 06:22:46;;;;;;;5.60;2.47;;;;;;;17.46;100.00;101135.19;5026055;28;20487;-77
2022/08/21 06:25:13;;;;;;;5.70;1.70;;;;;;;17.46;100.00;101138.72;5025453;28;20883;-76
2022/08/21 06:27:39;;;;;;;4.70;2.30;;;;;;;17.52;100.00;101131.09;5027754;28;20459;-76
2022/08/21 06:30:09;;;;;;;4.33;2.50;;;;;;;17.53;100.00;101132.69;5030258;28;20970;-76
2022/08/21 06:32:36;;;;;;;5.40;2.87;;;;;;;17.61;100.00;101131.81;5021729;28;20977;-75
2022/08/21 06:35:04;;;;;;;6.33;2.87;;;;;;;17.60;100.00;101132.97;5015576;28;20444;-74
2022/08/21 06:37:30;;;;;;;5.10;2.73;;;;;;;17.66;100.00;101134.34;5014964;28;20476;-74
2022/08/21 06:39:57;;;;;;;5.50;2.27;;;;;;;17.71;100.00;101139.66;5031545;28;20451;-75
2022/08/21 06:42:24;;;;;;;12.10;2.80;;;;;;;17.69;100.00;101138.38;5019474;28;20488;-76
2022/08/21 06:44:50;;;;;;;6.37;2.73;;;;;;;17.68;100.00;101134.03;5024052;28;20460;-77
2022/08/21 06:47:18;;;;;;;7.00;2.67;;;;;;;17.70;100.00;101135.28;5017847;28;20448;-76
2022/08/21 06:49:44;;;;;;;8.20;2.30;;;;;;;17.76;100.00;101142.22;5015748;28;20853;-77
2022/08/21 06:52:12;;;;;;;4.67;2.30;;;;;;;17.79;100.00;101138.78;5016842;28;20460;-75
2022/08/21 06:54:40;;;;;;;7.80;2.23;;;;;;;17.86;100.00;101139.06;5018637;28;20452;-75
2022/08/21 06:57:07;;;;;;;6.03;2.63;;;;;;;17.90;100.00;101145.47;5018833;28;20448;-77
2022/08/21 06:59:34;;;;;;;7.00;3.20;;;;;;;17.84;100.00;101135.88;5016868;28;20452;-76
2022/08/21 07:02:01;;;;;;;5.80;2.10;;;;;;;17.75;100.00;101137.88;5020026;28;20488;-77
2022/08/21 07:04:28;;;;;;;5.43;2.50;;;;;;;17.78;100.00;101139.13;5020844;28;20980;-76
2022/08/21 07:06:55;;;;;;;4.43;1.90;;;;;;;17.86;100.00;101143.75;5023013;28;20433;-76
2022/08/21 07:09:21;;;;;;;4.53;1.90;;;;;;;17.97;100.00;101133.94;5024435;28;20480;-73
2022/08/21 07:11:52;;;;;;;4.70;2.40;;;;;;;18.08;100.00;101132.41;5012678;28;20464;-71
2022/08/21 07:14:19;;;;;;;6.07;2.20;;;;;;;18.20;100.00;101136.31;5012360;28;20988;-72
2022/08/21 07:16:45;;;;;;;9.17;2.60;;;;;;;18.16;100.00;101127.97;5012428;28;20452;-70
2022/08/21 07:19:12;;;;;;;5.67;2.30;;;;;;;18.19;100.00;101132.75;5012724;28;20852;-72
2022/08/21 07:21:40;;;;;;;4.10;1.97;;;;;;;18.27;100.00;101125.59;5011918;28;20494;-73
2022/08/21 07:24:06;;;;;;;5.80;2.90;;;;;;;18.29;100.00;101118.63;5012193;28;20454;-72
2022/08/21 07:26:33;;;;;;;4.93;1.80;;;;;;;18.37;100.00;101128.69;5012372;28;20444;-70
2022/08/21 07:29:00;;;;;;;5.57;2.60;;;;;;;18.43;100.00;101133.97;5012337;28;20438;-71
2022/08/21 07:31:27;;;;;;;5.23;2.50;;;;;;;18.54;100.00;101122.19;5012278;28;20452;-71
2022/08/21 07:33:54;;;;;;;9.67;2.53;;;;;;;18.57;100.00;101117.97;5012039;28;21000;-71
2022/08/21 07:36:20;;;;;;;4.33;1.77;;;;;;;18.63;100.00;101122.09;5012345;28;20476;-71
2022/08/21 07:38:48;;;;;;;4.40;1.90;;;;;;;18.65;99.53;101130.78;5012185;28;20475;-69
2022/08/21 07:41:18;;;;;;;5.50;2.23;;;;;;;18.74;99.69;101134.25;5011847;28;20501;-72
2022/08/21 07:43:45;;;;;;;4.03;1.50;;;;;;;18.81;98.90;101128.97;5012173;28;20484;-73
2022/08/21 07:46:12;;;;;;;4.20;2.33;;;;;;;18.87;98.93;101121.31;5012055;28;20440;-72
2022/08/21 07:48:39;;;;;;;6.00;2.50;;;;;;;18.90;99.52;101128.84;5011679;28;20447;-72
2022/08/21 07:51:08;;;;;;;6.07;2.27;;;;;;;19.00;99.23;101124.88;5011652;28;20811;-71
2022/08/21 07:53:35;;;;;;;9.83;2.40;;;;;;;18.94;96.73;101126.22;5011958;28;20456;-71
2022/08/21 07:56:04;;;;;;;3.63;1.20;;;;;;;18.98;97.29;101132.63;5011958;28;20445;-71
2022/08/21 07:58:30;;;;;;;3.90;1.80;;;;;;;19.14;97.22;101130.78;5014266;28;20451;-74
2022/08/21 08:00:57;;;;;;;9.63;2.33;;;;;;;19.18;96.02;101126.22;5011808;28;20443;-70
2022/08/21 08:03:24;;;;;;;4.67;1.73;;;;;;;19.31;95.55;101130.53;5013125;28;20561;-72
2022/08/21 08:05:50;;;;;;;3.53;1.37;;;;;;;19.44;97.53;101122.28;5018150;28;20946;-70
2022/08/21 08:08:18;;;;;;;6.57;1.40;;;;;;;19.57;96.08;101126.59;5021484;28;20451;-75
2022/08/21 08:10:46;;;;;;;4.03;1.50;;;;;;;19.55;94.78;101117.88;5023399;28;20444;-73
2022/08/21 08:13:14;;;;;;;6.03;1.77;;;;;;;19.66;93.22;101116.28;5017453;28;20464;-72
2022/08/21 08:15:40;;;;;;;3.83;1.40;;;;;;;19.61;91.81;101111.81;5016016;28;20448;-71
2022/08/21 08:18:07;;;;;;;4.63;1.90;;;;;;;19.73;91.92;101110.94;5027844;28;20432;-73
2022/08/21 08:20:36;;;;;;;3.60;1.50;;;;;;;19.80;91.67;101113.91;5029890;28;20436;-71
2022/08/21 08:23:03;;;;;;;4.40;1.90;;;;;;;19.81;90.09;101106.47;5023210;28;20483;-72
2022/08/21 08:25:30;;;;;;;5.17;1.30;;;;;;;19.79;90.74;101106.00;5027923;28;20459;-71
2022/08/21 08:27:56;;;;;;;3.83;1.33;;;;;;;19.86;89.33;101112.50;5026569;28;20511;-72
2022/08/21 08:30:24;;;;;;;3.23;1.23;;;;;;;19.86;87.49;101111.69;5024493;28;20447;-72
2022/08/21 08:32:51;;;;;;;3.47;1.30;;;;;;;19.95;88.18;101115.09;5022482;28;20458;-71
2022/08/21 08:35:18;;;;;;;3.63;1.10;;;;;;;19.98;83.13;101121.84;5024170;28;20432;-72
2022/08/21 08:37:45;;;;;;;3.50;1.30;;;;;;;20.03;80.29;101116.09;5021291;28;20470;-73
2022/08/21 08:40:14;;;;;;;4.00;1.20;;;;;;;20.17;80.61;101124.72;5021549;28;20448;-72
2022/08/21 08:42:41;;;;;;;8.53;1.20;;;;;;;20.27;82.80;101121.44;5021025;28;20480;-72
2022/08/21 08:45:11;;;;;;;2.80;0.80;;;;;;;20.33;84.72;101130.25;5026552;28;20452;-73
2022/08/21 08:47:41;;;;;;;2.87;0.90;;;;;;;20.49;85.53;101138.53;5028099;28;20460;-72
2022/08/21 08:50:16;;;;;;;3.13;1.10;;;;;;;20.51;81.99;101130.72;5028216;28;20454;-72
2022/08/21 08:52:48;;;;;;;6.30;1.40;;;;;;;20.61;81.52;101130.19;5019874;28;20978;-72
2022/08/21 08:55:21;;;;;;;3.50;1.00;;;;;;;20.69;82.29;101126.47;5026775;28;20515;-72
2022/08/21 08:57:50;;;;;;;3.80;1.23;;;;;;;20.82;82.42;101130.72;5018354;28;20434;-72
2022/08/21 09:00:20;;;;;;;4.03;1.37;;;;;;;20.92;82.03;101121.88;5021114;28;20519;-72
2022/08/21 09:02:52;;;;;;;7.33;1.47;;;;;;;21.00;81.03;101131.13;5022397;28;21017;-73
2022/08/21 09:05:23;;;;;;;4.67;1.40;;;;;;;20.98;78.78;101127.13;5022093;28;20429;-72
2022/08/21 09:08:02;;;;;;;3.50;1.10;;;;;;;21.07;79.94;101128.53;5023305;28;20453;-72
2022/08/21 09:10:39;;;;;;;3.90;1.40;;;;;;;21.13;78.01;101118.03;5019008;28;20429;-72
2022/08/21 09:13:15;;;;;;;6.10;1.20;;;;;;;21.28;79.05;101121.91;5014043;28;20460;-72
2022/08/21 09:15:54;;;;;;;3.40;1.30;;;;;;;21.36;74.07;101120.91;5015219;28;20435;-71
2022/08/21 09:18:34;;;;;;;5.13;1.10;;;;;;;21.48;73.85;101122.75;5015449;28;20432;-72
2022/08/21 09:21:14;;;;;;;3.63;1.13;;;;;;;21.56;72.05;101121.72;5016718;28;20437;-72
2022/08/21 09:23:50;;;;;;;3.17;1.00;;;;;;;21.55;69.11;101118.16;5016543;28;20533;-72
2022/08/21 09:26:20;;;;;;;3.33;1.07;;;;;;;21.63;67.29;101125.44;5015727;28;20535;-72
2022/08/21 09:28:53;;;;;;;3.23;1.03;;;;;;;21.55;69.72;101128.41;5012990;28;20451;-73
2022/08/21 09:31:24;;;;;;;3.57;1.20;;;;;;;21.60;70.06;101125.34;5013414;28;20456;-72
2022/08/21 09:33:58;;;;;;;3.00;1.07;;;;;;;21.78;71.53;101129.28;5014027;28;20412;-72
2022/08/21 09:36:35;;;;;;;3.00;1.13;;;;;;;21.90;71.59;101129.09;5015221;28;20433;-73
2022/08/21 09:39:02;;;;;;;4.53;1.43;;;;;;;21.99;70.12;101128.09;5013088;28;20412;-72
2022/08/21 09:41:30;;;;;;;4.60;1.47;;;;;;;22.06;68.50;101126.25;5011803;28;20958;-73
2022/08/21 09:43:57;;;;;;;4.50;1.17;;;;;;;22.12;68.60;101129.53;5013158;28;20537;-72
2022/08/21 09:46:26;;;;;;;7.50;1.33;;;;;;;22.20;66.40;101125.75;5011759;28;20869;-72
2022/08/21 09:48:55;;;;;;;3.60;0.80;;;;;;;22.37;67.67;101130.00;5010636;28;20455;-73
2022/08/21 09:51:25;;;;;;;2.70;0.90;;;;;;;22.41;65.70;101123.38;5010179;28;20463;-72
2022/08/21 09:53:55;;;;;;;2.73;0.80;;;;;;;22.47;66.58;101128.59;5010648;28;20780;-72
2022/08/21 09:59:31;;;;;;;4.33;0.97;;;;;;;22.48;62.73;101130.97;4986262;28;20444;-73
2022/08/21 10:02:00;;;;;;;5.60;1.00;;;;;;;22.32;60.00;101127.56;5010517;28;20563;-72
2022/08/21 10:04:32;;;;;;;3.77;1.27;;;;;;;22.39;61.30;101133.19;5010701;28;20492;-73
2022/08/21 10:07:08;;;;;;;6.10;0.90;;;;;;;22.50;60.54;101127.84;5009885;28;20420;-74
2022/08/21 10:09:34;;;;;;;2.67;0.77;;;;;;;22.57;59.46;101130.72;5010218;28;20481;-74
2022/08/21 10:12:16;;;;;;;3.90;1.00;;;;;;;22.54;57.49;101128.72;5010878;28;20464;-75
2022/08/21 10:14:56;;;;;;;3.33;0.90;;;;;;;22.62;59.08;101125.69;5010097;28;20798;-74
2022/08/21 10:17:31;;;;;;;2.87;0.97;;;;;;;22.81;63.16;101127.56;5010033;28;20425;-74
2022/08/21 10:20:05;;;;;;;3.70;1.00;;;;;;;22.75;59.90;101131.78;5010219;28;20436;-72
2022/08/21 10:22:39;;;;;;;3.20;1.10;;;;;;;22.89;63.08;101123.78;5012863;28;20489;-74
2022/08/21 10:27:43;;;;;;;3.63;1.30;;;;;;;22.81;60.49;101127.56;5093644;28;20972;-69
2022/08/21 10:30:14;;;;;;;4.67;1.20;;;;;;;22.92;62.91;101123.03;5096288;28;20431;-69
2022/08/21 10:33:13;;;;;;;3.30;1.03;;;;;;;22.81;57.46;101129.53;5096539;28;20440;-69
2022/08/21 10:35:52;;;;;;;2.80;0.97;;;;;;;22.54;55.27;101128.72;5096066;28;20467;-68
2022/08/21 10:38:42;;;;;;;3.23;0.90;;;;;;;22.64;54.39;101123.34;5096281;28;20432;-69
2022/08/21 10:41:19;;;;;;;2.70;0.80;;;;;;;22.65;56.15;101124.16;5096196;28;20437;-69
2022/08/21 10:43:53;;;;;;;3.20;0.90;;;;;;;22.74;53.67;101126.66;5095991;28;20533;-69
2022/08/21 10:46:27;;;;;;;5.13;0.93;;;;;;;22.78;52.85;101131.06;5096077;28;20452;-69
2022/08/21 10:48:58;;;;;;;2.70;0.73;;;;;;;22.76;52.08;101125.13;5096134;28;20424;-69
2022/08/21 10:51:38;;;;;;;6.40;1.53;;;;;;;22.92;54.08;101119.47;5095557;28;20772;-70
2022/08/21 10:54:08;;;;;;;3.00;0.80;;;;;;;23.08;54.04;101128.41;5095824;28;20432;-69
2022/08/21 10:56:39;;;;;;;2.60;0.70;;;;;;;23.15;53.22;101127.69;5095594;28;20793;-69
2022/08/21 10:59:21;;;;;;;3.00;1.00;;;;;;;23.24;50.51;101116.34;5095946;28;20440;-69
2022/08/21 11:01:52;;;;;;;3.20;1.03;;;;;;;23.44;53.41;101115.06;5095998;28;20424;-69
2022/08/21 11:04:26;;;;;;;2.87;0.77;;;;;;;23.56;52.20;101119.56;5095776;28;20488;-71
2022/08/21 11:07:01;;;;;;;6.23;1.13;;;;;;;23.82;54.62;101124.25;5095921;28;20429;-69
2022/08/21 11:09:28;;;;;;;8.10;1.17;;;;;;;24.04;54.03;101125.22;5095714;28;20424;-68
2022/08/21 11:12:01;;;;;;;4.10;1.13;;;;;;;24.06;53.28;101122.91;5095682;28;20460;-69
2022/08/21 11:14:37;;;;;;;4.90;1.00;;;;;;;24.17;51.36;101116.31;5095849;28;20456;-69
2022/08/21 11:17:09;;;;;;;3.23;1.10;;;;;;;24.40;50.42;101118.13;5095693;28;20443;-69
2022/08/21 11:19:41;;;;;;;3.57;0.90;;;;;;;24.82;52.12;101120.41;5095510;28;20424;-69
2022/08/21 11:22:14;;;;;;;7.97;1.20;;;;;;;25.22;49.87;101115.94;5095548;28;20420;-69
2022/08/21 11:24:48;;;;;;;3.63;1.30;;;;;;;25.31;47.18;101118.34;5095407;28;20503;-69
2022/08/21 11:27:23;;;;;;;2.50;0.60;;;;;;;25.62;48.82;101120.47;5095150;28;20460;-68
2022/08/21 11:29:53;;;;;;;4.57;1.23;;;;;;;25.85;50.49;101119.38;5095045;28;20899;-69
2022/08/21 11:32:36;;;;;;;3.07;0.83;;;;;;;26.00;49.91;101115.47;5094827;28;20429;-69